EBBL

Kleine Brogel Air Base Airport

Kleine Brogel, Belgium
METAR EBBL 181604Z 34005KT 5000 FEW009 OVC010 07/06 Q1027 GRN GRN TEMPO YLO
Observed Flight Rules
Dec-18 @ 16:04 UTC (25 minutes ago) Marginal Visual Flight Rules
Wind Visibility Clouds
340° at 5 knots 5,005 meters
  • Few at 900' AGL
  • Overcast at 1,000' AGL
Temperatures Readings
Current 7°C / 45°F
Dewpoint 6°C / 43°F
Humidity 93%
Altimeter 30.32" Hg
Pressure 1027 hPa
Elevation 64
METAR EBBL 181604Z 34005KT 5000 FEW009 OVC010 07/06 Q1027 GRN GRN TEMPO YLO
Observed Flight Rules
Dec-18 @ 16:04 UTC
(25 minutes ago)
MVFR
Wind Visibility
340° at 5 knots 5,005 meters
Clouds
  • Few at 900' AGL
  • Overcast at 1,000' AGL
Temperature Dewpoint
7°C / 45°F 6°C / 43°F
Humidity Altimeter Pressure
93% 30.32" Hg 1027 hPa